createdAt,value
2022-12-17T00:00:54.959Z,1.58
2022-12-17T00:03:47.022Z,1.40
2022-12-17T00:06:36.553Z,1.60
2022-12-17T00:09:25.201Z,1.65
2022-12-17T00:12:19.235Z,1.60
2022-12-17T00:15:08.126Z,1.45
2022-12-17T00:18:00.656Z,1.70
2022-12-17T00:20:50.632Z,1.80
2022-12-17T00:23:40.016Z,1.60
2022-12-17T00:26:32.440Z,1.88
2022-12-17T00:29:21.725Z,1.70
2022-12-17T00:32:11.768Z,1.85
2022-12-17T00:35:00.079Z,1.60
2022-12-17T00:37:51.196Z,1.45
2022-12-17T00:40:40.483Z,1.58
2022-12-17T00:43:32.910Z,1.70
2022-12-17T00:46:24.045Z,1.70
2022-12-17T00:49:17.259Z,1.40
2022-12-17T00:52:05.419Z,1.60
2022-12-17T00:54:55.673Z,1.73
2022-12-17T00:57:49.469Z,1.80
2022-12-17T01:00:40.441Z,1.60
2022-12-17T01:03:32.023Z,1.60
2022-12-17T01:06:23.990Z,1.60
2022-12-17T01:09:13.010Z,1.75
2022-12-17T01:12:03.904Z,1.85
2022-12-17T01:14:52.323Z,1.70
2022-12-17T01:17:40.153Z,1.65
2022-12-17T01:20:29.602Z,1.95
2022-12-17T01:23:25.420Z,3.47
2022-12-17T01:26:23.386Z,2.83
2022-12-17T01:29:11.865Z,2.35
2022-12-17T01:32:03.847Z,1.80
2022-12-17T01:34:53.306Z,1.90
2022-12-17T01:37:48.405Z,1.77
2022-12-17T01:40:36.483Z,1.80
2022-12-17T01:43:32.677Z,1.63
2022-12-17T01:46:22.627Z,1.60
2022-12-17T01:49:12.048Z,1.60
2022-12-17T01:51:59.944Z,1.80
2022-12-17T01:54:49.608Z,1.90
2022-12-17T01:57:41.062Z,1.60
2022-12-17T02:00:33.302Z,1.23
2022-12-17T02:03:24.380Z,1.80
2022-12-17T02:06:46.433Z,1.60
2022-12-17T02:09:50.747Z,1.60
2022-12-17T02:12:48.944Z,1.50
2022-12-17T02:16:02.960Z,1.40
2022-12-17T02:19:02.661Z,1.60
2022-12-17T02:21:53.654Z,1.33
2022-12-17T02:25:16.355Z,1.35
2022-12-17T02:28:08.356Z,1.50
2022-12-17T02:30:59.928Z,1.60
2022-12-17T02:33:52.014Z,1.80
2022-12-17T02:36:42.267Z,1.60
2022-12-17T02:39:32.898Z,1.60
2022-12-17T02:42:23.479Z,1.73
2022-12-17T02:45:18.552Z,1.90
2022-12-17T02:48:11.721Z,1.70
2022-12-17T02:51:00.300Z,1.60
2022-12-17T02:53:52.301Z,1.50
2022-12-17T02:56:44.419Z,1.70
2022-12-17T02:59:32.294Z,1.75
2022-12-17T03:02:24.654Z,1.80
2022-12-17T03:05:47.528Z,1.90
2022-12-17T03:08:39.012Z,1.58
2022-12-17T03:11:30.917Z,1.50
2022-12-17T03:14:24.031Z,1.67
2022-12-17T03:17:16.776Z,1.92
2022-12-17T03:20:16.718Z,1.60
2022-12-17T03:23:08.999Z,1.70
2022-12-17T03:25:59.422Z,1.40
2022-12-17T03:28:54.262Z,1.80
2022-12-17T03:31:45.460Z,1.70
2022-12-17T03:34:36.201Z,1.55
2022-12-17T03:37:23.879Z,1.80
2022-12-17T03:40:16.339Z,1.70
2022-12-17T03:43:05.036Z,1.70
2022-12-17T03:45:58.624Z,1.80
2022-12-17T03:48:49.192Z,1.63
2022-12-17T03:51:49.424Z,1.90
2022-12-17T03:54:37.807Z,1.83
2022-12-17T03:57:25.713Z,1.83
2022-12-17T04:00:19.998Z,1.70
2022-12-17T04:03:08.609Z,1.90
2022-12-17T04:05:59.344Z,1.60
2022-12-17T04:08:51.469Z,1.65
2022-12-17T04:11:40.021Z,1.80
2022-12-17T04:14:31.265Z,2.10
2022-12-17T04:17:19.944Z,2.15
2022-12-17T04:20:08.701Z,2.38
2022-12-17T04:22:59.498Z,2.20
2022-12-17T04:25:49.111Z,2.28
2022-12-17T04:28:37.217Z,2.08
2022-12-17T04:31:32.292Z,2.28
2022-12-17T04:34:20.368Z,2.20
2022-12-17T04:37:08.103Z,2.30
2022-12-17T04:39:57.218Z,2.47
2022-12-17T04:42:45.402Z,2.20
2022-12-17T04:45:34.710Z,2.30
2022-12-17T04:48:24.494Z,2.10
2022-12-17T04:51:15.805Z,2.20
2022-12-17T04:54:03.859Z,2.10
2022-12-17T04:56:51.657Z,2.10
2022-12-17T04:59:40.788Z,2.17
2022-12-17T05:02:29.366Z,2.20
2022-12-17T05:05:19.706Z,2.05
2022-12-17T05:08:07.971Z,2.10
2022-12-17T05:10:57.478Z,2.15
2022-12-17T05:13:46.744Z,2.13
2022-12-17T05:16:36.870Z,2.20
2022-12-17T05:19:25.676Z,2.20
2022-12-17T05:22:15.955Z,1.90
2022-12-17T05:25:04.071Z,1.95
2022-12-17T05:27:52.084Z,2.10
2022-12-17T05:30:40.861Z,1.90
2022-12-17T05:33:30.668Z,2.05
2022-12-17T05:36:21.729Z,1.90
2022-12-17T05:39:09.461Z,2.10
2022-12-17T05:42:00.615Z,2.10
2022-12-17T05:44:48.821Z,2.10
2022-12-17T05:47:35.908Z,1.90
2022-12-17T05:50:23.736Z,2.05
2022-12-17T05:53:11.857Z,2.00
2022-12-17T05:56:00.374Z,2.05
2022-12-17T05:58:48.630Z,1.90
2022-12-17T06:01:37.763Z,2.03
2022-12-17T06:04:27.892Z,2.10
2022-12-17T06:07:16.204Z,2.00
2022-12-17T06:10:19.068Z,1.90
2022-12-17T06:13:16.341Z,2.00
2022-12-17T06:16:23.451Z,2.00
2022-12-17T06:19:13.077Z,2.00
2022-12-17T06:22:01.842Z,2.17
2022-12-17T06:24:52.281Z,2.00
2022-12-17T06:27:40.567Z,2.20
2022-12-17T06:30:30.094Z,2.20
2022-12-17T06:33:29.355Z,2.05
2022-12-17T06:36:22.784Z,1.85
2022-12-17T06:39:10.996Z,1.85
2022-12-17T06:42:04.350Z,2.10
2022-12-17T06:44:52.849Z,2.00
2022-12-17T06:47:41.833Z,1.95
2022-12-17T06:50:31.954Z,2.20
2022-12-17T06:53:24.273Z,2.05
2022-12-17T06:56:20.555Z,2.20
2022-12-17T06:59:11.941Z,2.13
2022-12-17T07:02:00.662Z,2.15
2022-12-17T07:04:50.762Z,2.00
2022-12-17T07:07:57.210Z,2.00
2022-12-17T07:10:47.262Z,2.08
2022-12-17T07:13:36.346Z,2.10
2022-12-17T07:16:24.859Z,2.20
2022-12-17T07:19:16.274Z,2.15
2022-12-17T07:22:04.064Z,2.10
2022-12-17T07:24:51.892Z,2.25
2022-12-17T07:27:40.165Z,2.10
2022-12-17T07:30:32.538Z,2.13
2022-12-17T07:33:51.907Z,2.30
2022-12-17T07:36:40.385Z,2.17
2022-12-17T07:39:30.382Z,2.13
2022-12-17T07:42:20.197Z,2.10
2022-12-17T07:45:08.004Z,2.30
2022-12-17T07:47:57.347Z,2.10
2022-12-17T07:50:50.136Z,2.20
2022-12-17T07:53:40.661Z,2.17
2022-12-17T07:56:30.724Z,2.03
2022-12-17T07:59:21.588Z,2.20
2022-12-17T08:02:10.566Z,2.10
2022-12-17T08:04:58.949Z,1.90
2022-12-17T08:07:48.263Z,2.08
2022-12-17T08:10:36.915Z,2.00
2022-12-17T08:13:28.766Z,1.98
2022-12-17T08:16:19.048Z,1.80
2022-12-17T08:19:08.348Z,1.80
2022-12-17T08:21:57.403Z,1.90
2022-12-17T08:24:45.167Z,1.80
2022-12-17T08:27:33.027Z,1.75
2022-12-17T08:30:22.853Z,1.80
2022-12-17T08:33:12.262Z,1.80
2022-12-17T08:36:03.959Z,1.90
2022-12-17T08:38:51.800Z,1.80
2022-12-17T08:41:40.913Z,1.75
2022-12-17T08:44:31.053Z,1.80
2022-12-17T08:47:21.317Z,1.90
2022-12-17T08:50:23.963Z,1.70
2022-12-17T08:53:19.651Z,1.67
2022-12-17T08:56:08.085Z,1.90
2022-12-17T08:58:59.377Z,1.85
2022-12-17T09:01:48.554Z,1.70
2022-12-17T09:04:36.972Z,1.70
2022-12-17T09:07:25.108Z,1.80
2022-12-17T09:10:16.373Z,1.60
2022-12-17T09:13:13.748Z,1.75
2022-12-17T09:16:12.300Z,2.03
2022-12-17T09:19:02.721Z,1.80
2022-12-17T09:21:52.009Z,1.90
2022-12-17T09:24:40.152Z,1.70
2022-12-17T09:27:29.790Z,2.00
2022-12-17T09:30:20.098Z,1.83
2022-12-17T09:33:08.113Z,1.70
2022-12-17T09:35:59.894Z,1.60
2022-12-17T09:38:47.389Z,1.70
2022-12-17T09:42:02.774Z,1.80
2022-12-17T09:45:39.476Z,1.60
2022-12-17T09:48:55.337Z,1.50
2022-12-17T09:51:48.988Z,1.55
2022-12-17T09:54:56.339Z,1.60
2022-12-17T09:57:55.316Z,1.60
2022-12-17T10:00:49.444Z,1.60
2022-12-17T10:03:42.415Z,1.60
2022-12-17T10:06:48.700Z,1.70
2022-12-17T10:09:40.170Z,1.35
2022-12-17T10:12:36.404Z,1.58
2022-12-17T10:15:28.621Z,1.25
2022-12-17T10:18:32.578Z,1.60
2022-12-17T10:21:30.375Z,1.70
2022-12-17T10:24:31.366Z,1.52
2022-12-17T10:27:19.460Z,1.30
2022-12-17T10:30:08.709Z,1.80
2022-12-17T10:33:00.836Z,1.83
2022-12-17T10:35:57.682Z,1.67
2022-12-17T10:41:57.522Z,1.30
2022-12-17T10:44:57.400Z,1.80
2022-12-17T10:47:50.751Z,1.60
2022-12-17T10:50:44.179Z,1.80
2022-12-17T10:53:44.059Z,1.95
2022-12-17T10:56:44.963Z,1.70
2022-12-17T10:59:48.736Z,1.60
2022-12-17T11:02:44.569Z,1.60
2022-12-17T11:05:40.027Z,1.73
2022-12-17T11:08:32.701Z,2.25
2022-12-17T11:11:31.113Z,2.28
2022-12-17T11:14:21.305Z,2.13
2022-12-17T11:17:15.487Z,2.25
2022-12-17T11:20:31.330Z,1.80
2022-12-17T11:23:22.263Z,1.80
2022-12-17T11:26:40.578Z,1.70
2022-12-17T11:29:39.088Z,1.80
2022-12-17T11:32:48.749Z,1.60
2022-12-17T11:35:52.295Z,1.60
2022-12-17T11:39:07.233Z,1.77
2022-12-17T11:42:10.875Z,1.60
2022-12-17T11:45:28.492Z,1.55
2022-12-17T11:48:36.482Z,1.85
2022-12-17T11:51:36.118Z,1.60
2022-12-17T11:54:49.145Z,1.60
2022-12-17T11:57:58.042Z,1.70
2022-12-17T12:00:49.394Z,1.63
2022-12-17T12:04:00.183Z,1.80
2022-12-17T12:06:51.873Z,1.67
2022-12-17T12:10:12.334Z,1.55
2022-12-17T12:13:31.910Z,1.52
2022-12-17T12:16:51.685Z,1.50
2022-12-17T12:20:36.672Z,1.40
2022-12-17T12:23:41.464Z,1.60
2022-12-17T12:26:31.207Z,1.30
2022-12-17T12:29:40.211Z,1.35
2022-12-17T12:32:52.976Z,1.70
2022-12-17T12:35:44.455Z,1.77
2022-12-17T12:42:11.646Z,1.63
2022-12-17T12:45:20.614Z,2.10
2022-12-17T12:48:48.497Z,1.90
2022-12-17T12:52:03.368Z,2.08
2022-12-17T12:55:15.432Z,2.20
2022-12-17T12:59:05.678Z,2.20
2022-12-17T13:02:16.076Z,1.52
2022-12-17T13:05:20.104Z,1.70
2022-12-17T13:07:51.934Z,1.80
2022-12-17T13:10:35.254Z,1.70
2022-12-17T13:14:05.202Z,1.98
2022-12-17T13:17:26.856Z,1.77
2022-12-17T13:20:36.206Z,1.40
2022-12-17T13:23:48.846Z,1.80
2022-12-17T13:26:55.761Z,1.45
2022-12-17T13:30:34.732Z,1.48
2022-12-17T13:33:53.099Z,1.60
2022-12-17T13:36:51.755Z,1.27
2022-12-17T13:40:10.738Z,1.50
2022-12-17T13:43:11.542Z,1.42
2022-12-17T13:47:17.324Z,1.52
2022-12-17T13:50:36.116Z,1.52
2022-12-17T13:53:27.125Z,1.48
2022-12-17T13:56:46.222Z,1.48
2022-12-17T13:59:32.850Z,1.42
2022-12-17T14:02:50.030Z,1.52
2022-12-17T14:05:48.377Z,1.50
2022-12-17T14:08:39.785Z,1.60
2022-12-17T14:11:50.727Z,1.27
2022-12-17T14:14:52.608Z,1.35
2022-12-17T14:17:59.725Z,1.60
2022-12-17T14:20:44.750Z,1.52
2022-12-17T14:23:41.077Z,1.50
2022-12-17T14:26:24.702Z,1.35
2022-12-17T14:29:40.710Z,1.38
2022-12-17T14:32:52.066Z,1.52
2022-12-17T14:35:44.669Z,1.60
2022-12-17T14:38:38.770Z,1.60
2022-12-17T14:41:53.643Z,1.63
2022-12-17T14:45:05.094Z,1.60
2022-12-17T14:47:44.584Z,1.60
2022-12-17T14:50:29.906Z,1.30
2022-12-17T14:53:48.558Z,1.40
2022-12-17T14:57:03.137Z,1.40
2022-12-17T14:59:53.446Z,1.40
2022-12-17T15:03:05.503Z,1.50
2022-12-17T15:06:19.433Z,1.42
2022-12-17T15:09:12.116Z,1.50
2022-12-17T15:11:57.827Z,1.40
2022-12-17T15:14:48.074Z,1.55
2022-12-17T15:18:13.893Z,1.48
2022-12-17T15:24:59.008Z,1.23
2022-12-17T15:27:50.941Z,1.50
2022-12-17T15:30:24.836Z,1.20
2022-12-17T15:33:15.783Z,1.33
2022-12-17T15:35:45.403Z,1.60
2022-12-17T15:38:15.949Z,1.23
2022-12-17T15:40:45.042Z,1.63
2022-12-17T15:43:16.320Z,1.40
2022-12-17T15:45:48.794Z,1.30
2022-12-17T15:48:20.978Z,1.48
2022-12-17T15:50:51.248Z,1.50
2022-12-17T15:53:36.914Z,1.42
2022-12-17T15:56:16.357Z,1.80
2022-12-17T16:00:08.229Z,1.38
2022-12-17T16:02:39.001Z,1.40
2022-12-17T16:05:13.424Z,1.27
2022-12-17T16:07:52.338Z,1.42
2022-12-17T16:10:22.659Z,1.40
2022-12-17T16:12:52.279Z,1.50
2022-12-17T16:15:21.340Z,1.60
2022-12-17T16:17:51.746Z,1.55
2022-12-17T16:20:23.246Z,1.52
2022-12-17T16:22:53.490Z,1.38
2022-12-17T16:25:30.914Z,1.60
2022-12-17T16:28:00.887Z,1.60
2022-12-17T16:30:31.239Z,1.35
2022-12-17T16:33:01.719Z,1.42
2022-12-17T16:35:32.497Z,1.50
2022-12-17T16:38:01.098Z,1.38
2022-12-17T16:40:33.966Z,1.65
2022-12-17T16:43:03.580Z,1.60
2022-12-17T16:45:34.011Z,1.63
2022-12-17T16:48:03.950Z,1.40
2022-12-17T16:50:36.268Z,1.40
2022-12-17T16:53:05.533Z,1.80
2022-12-17T16:55:40.883Z,1.30
2022-12-17T16:58:15.287Z,1.48
2022-12-17T17:00:47.124Z,1.40
2022-12-17T17:03:17.618Z,1.70
2022-12-17T17:05:49.909Z,1.45
2022-12-17T17:08:20.997Z,1.30
2022-12-17T17:11:15.042Z,1.48
2022-12-17T17:13:49.345Z,1.30
2022-12-17T17:18:51.188Z,1.38
2022-12-17T17:21:40.082Z,1.42
2022-12-17T17:24:21.379Z,1.23
2022-12-17T17:27:00.544Z,1.38
2022-12-17T17:29:50.895Z,1.40
2022-12-17T17:32:21.771Z,1.27
2022-12-17T17:34:51.837Z,1.40
2022-12-17T17:37:21.372Z,0.90
2022-12-17T17:39:51.597Z,1.42
2022-12-17T17:42:23.628Z,1.50
2022-12-17T17:44:55.150Z,1.45
2022-12-17T17:47:32.410Z,1.50
2022-12-17T17:50:01.642Z,1.30
2022-12-17T17:52:36.761Z,1.60
2022-12-17T17:55:09.281Z,1.48
2022-12-17T17:57:46.535Z,1.58
2022-12-17T18:00:17.960Z,1.70
2022-12-17T18:03:00.000Z,1.30
2022-12-17T18:05:44.367Z,1.43
2022-12-17T18:08:44.034Z,1.25
2022-12-17T18:11:23.144Z,1.23
2022-12-17T18:14:05.396Z,1.40
2022-12-17T18:16:51.934Z,1.20
2022-12-17T18:19:33.276Z,1.30
2022-12-17T18:22:11.003Z,1.52
2022-12-17T18:24:51.407Z,1.38
2022-12-17T18:27:30.553Z,1.50
2022-12-17T18:30:01.504Z,1.38
2022-12-17T18:32:36.765Z,1.50
2022-12-17T18:35:07.889Z,1.42
2022-12-17T18:37:37.953Z,1.58
2022-12-17T18:40:08.954Z,1.40
2022-12-17T18:42:57.601Z,1.10
2022-12-17T18:45:29.590Z,1.27
2022-12-17T18:48:00.086Z,1.40
2022-12-17T18:50:30.528Z,1.60
2022-12-17T18:53:01.455Z,1.40
2022-12-17T18:55:32.652Z,1.40
2022-12-17T18:58:03.713Z,1.23
2022-12-17T19:00:35.412Z,1.50
2022-12-17T19:03:06.578Z,1.38
2022-12-17T19:05:37.044Z,1.20
2022-12-17T19:08:09.585Z,1.40
2022-12-17T19:10:41.528Z,1.50
2022-12-17T19:13:12.941Z,1.42
2022-12-17T19:15:42.407Z,1.70
2022-12-17T19:18:13.324Z,1.50
2022-12-17T19:20:47.901Z,1.55
2022-12-17T19:23:17.542Z,1.48
2022-12-17T19:25:47.504Z,1.40
2022-12-17T19:28:19.211Z,1.40
2022-12-17T19:30:48.858Z,1.20
2022-12-17T19:33:17.904Z,1.30
2022-12-17T19:35:47.204Z,1.27
2022-12-17T19:38:16.868Z,1.58
2022-12-17T19:40:55.088Z,1.50
2022-12-17T19:43:29.993Z,1.45
2022-12-17T19:46:07.713Z,1.30
2022-12-17T19:48:42.499Z,1.45
2022-12-17T19:51:19.066Z,1.30
2022-12-17T19:54:00.748Z,1.40
2022-12-17T19:58:22.712Z,1.35
2022-12-17T20:01:27.870Z,1.25
2022-12-17T20:04:20.896Z,1.17
2022-12-17T20:07:05.054Z,1.20
2022-12-17T20:09:56.880Z,1.20
2022-12-17T20:12:56.973Z,1.20
2022-12-17T20:15:41.742Z,1.15
2022-12-17T20:18:16.994Z,1.40
2022-12-17T20:20:49.433Z,1.15
2022-12-17T20:23:23.696Z,1.35
2022-12-17T20:26:07.061Z,1.30
2022-12-17T20:28:38.248Z,1.23
2022-12-17T20:31:13.041Z,1.20
2022-12-17T20:33:43.660Z,1.20
2022-12-17T20:36:17.248Z,1.33
2022-12-17T20:38:49.061Z,1.45
2022-12-17T20:41:29.133Z,1.30
2022-12-17T20:44:06.242Z,1.23
2022-12-17T20:46:42.033Z,1.33
2022-12-17T20:49:13.789Z,1.23
2022-12-17T20:51:47.772Z,1.17
2022-12-17T20:54:17.046Z,1.30
2022-12-17T20:56:46.695Z,1.30
2022-12-17T20:59:19.824Z,1.02
2022-12-17T21:01:55.913Z,1.35
2022-12-17T21:04:28.561Z,1.30
2022-12-17T21:06:59.955Z,1.20
2022-12-17T21:09:31.102Z,1.50
2022-12-17T21:12:01.568Z,1.17
2022-12-17T21:14:35.890Z,1.35
2022-12-17T21:17:07.546Z,1.30
2022-12-17T21:19:37.770Z,1.40
2022-12-17T21:22:07.608Z,1.42
2022-12-17T21:24:53.817Z,1.50
2022-12-17T21:27:41.317Z,1.52
2022-12-17T21:30:20.386Z,1.13
2022-12-17T21:32:54.803Z,1.48
2022-12-17T21:35:37.279Z,1.20
2022-12-17T21:38:18.161Z,1.48
2022-12-17T21:41:33.516Z,1.40
2022-12-17T21:44:16.061Z,1.25
2022-12-17T21:47:03.950Z,1.48
2022-12-17T21:49:49.460Z,1.52
2022-12-17T21:52:29.831Z,1.60
2022-12-17T21:55:15.094Z,1.20
2022-12-17T21:57:52.209Z,1.38
2022-12-17T22:00:37.885Z,1.60
2022-12-17T22:03:17.468Z,1.30
2022-12-17T22:05:51.392Z,1.30
2022-12-17T22:08:47.469Z,1.70
2022-12-17T22:11:42.112Z,1.50
2022-12-17T22:14:21.244Z,1.50
2022-12-17T22:16:57.907Z,1.33
2022-12-17T22:19:44.276Z,1.30
2022-12-17T22:22:31.320Z,1.40
2022-12-17T22:25:11.579Z,1.42
2022-12-17T22:27:47.194Z,1.23
2022-12-17T22:30:40.915Z,1.20
2022-12-17T22:33:38.496Z,1.35
2022-12-17T22:38:57.704Z,1.33
2022-12-17T22:43:11.563Z,1.05
2022-12-17T22:44:39.223Z,1.20
2022-12-17T22:45:26.937Z,1.00
2022-12-17T22:48:01.317Z,1.40
2022-12-17T22:50:42.611Z,1.30
2022-12-17T22:53:29.743Z,1.20
2022-12-17T22:56:23.164Z,1.33
2022-12-17T22:59:05.249Z,1.52
2022-12-17T23:01:37.282Z,1.17
2022-12-17T23:04:07.910Z,1.33
2022-12-17T23:06:39.159Z,1.17
2022-12-17T23:09:09.159Z,1.38
2022-12-17T23:11:40.057Z,1.30
2022-12-17T23:14:14.122Z,1.40
2022-12-17T23:16:45.645Z,1.50
2022-12-17T23:19:17.406Z,1.38
2022-12-17T23:21:47.398Z,1.35
2022-12-17T23:24:19.758Z,1.40
2022-12-17T23:26:49.367Z,1.35
2022-12-17T23:29:20.535Z,1.40
2022-12-17T23:31:51.528Z,1.38
2022-12-17T23:34:21.286Z,1.20
2022-12-17T23:36:53.478Z,1.42
2022-12-17T23:39:32.868Z,1.35
2022-12-17T23:42:01.912Z,1.40
2022-12-17T23:44:37.424Z,1.50
2022-12-17T23:47:12.418Z,1.30
2022-12-17T23:49:43.654Z,1.45
2022-12-17T23:52:16.398Z,1.65
2022-12-17T23:54:48.514Z,1.48
2022-12-17T23:57:17.778Z,1.40
2022-12-17T23:59:53.041Z,1.58
